Terminal Aerodrome Forecast
Issued by NWS

Current Version | Previous Version | Text Only | Print | Product List | Glossary On
Versions: 1 2 3 4 5 6 7 8 9 10 11 12 13
000
FTUS43 KPAH 291720
TAFCGI
TAF
KCGI 291720Z 2918/3018 19012G22KT P6SM SCT035 BKN150
      TEMPO 2918/2921 BKN035
     FM292300 23007KT P6SM SCT050 BKN100
     FM300500 32004KT P6SM SCT250=

USA.gov is the U.S. government's official web portal to all federal, state and local government web resources and services.